Time;durP1;ratioP1;P1;durP2;ratioP2;P2;SDS_P1;SDS_P2;PMS_P1;PMS_P2;Temp;Humidity;BMP_temperature;BMP_pressure;BME280_temperature;BME280_humidity;BME280_pressure;Samples;Min_cycle;Max_cycle;Signal;HPM_P1;HPM_P2
2022/01/25 00:09:07;;;;;;;;;34.50;28.25;;;;;4.61;73.25;103446.53;5041609;28;11437;-71
2022/01/25 00:28:19;;;;;;;;;46.75;33.25;;;;;4.69;74.92;103452.31;5039827;28;11484;-71
2022/01/25 00:33:33;;;;;;;;;50.25;39.00;;;;;4.62;74.83;103459.84;5041035;28;11516;-72
2022/01/25 00:36:03;;;;;;;;;48.00;35.25;;;;;4.58;74.73;103455.63;5036086;28;12215;-71
2022/01/25 00:38:30;;;;;;;;;45.75;35.50;;;;;4.63;74.72;103456.22;5036652;28;11577;-71
2022/01/25 00:40:56;;;;;;;;;48.00;40.00;;;;;4.63;74.49;103450.84;5039859;28;11592;-71
2022/01/25 00:43:25;;;;;;;;;42.25;37.00;;;;;4.57;74.40;103451.22;5028505;28;11612;-72
2022/01/25 00:45:54;;;;;;;;;39.50;36.00;;;;;4.60;74.05;103440.31;5023049;28;11504;-71
2022/01/25 00:48:32;;;;;;;;;50.25;41.25;;;;;4.43;74.07;103436.81;5037212;28;11492;-71
2022/01/25 00:51:15;;;;;;;;;42.50;38.75;;;;;4.54;74.36;103447.84;5039488;28;11485;-71
2022/01/25 00:54:05;;;;;;;;;43.25;37.25;;;;;4.54;74.05;103442.47;5040542;28;11509;-72
2022/01/25 00:56:50;;;;;;;;;35.00;29.75;;;;;4.57;74.06;103448.53;5028309;28;11497;-72
2022/01/25 00:59:21;;;;;;;;;33.00;29.25;;;;;4.55;73.92;103444.19;5022279;28;11497;-72
2022/01/25 01:01:49;;;;;;;;;42.75;35.50;;;;;4.62;73.76;103451.81;5029387;28;11621;-71
2022/01/25 01:04:17;;;;;;;;;51.25;38.75;;;;;4.65;74.22;103450.78;5039252;28;11527;-71
2022/01/25 01:06:45;;;;;;;;;46.25;35.00;;;;;4.59;73.69;103446.63;5039485;28;11538;-71
2022/01/25 01:09:13;;;;;;;;;45.75;37.00;;;;;4.51;73.05;103442.66;5038464;28;11513;-72
2022/01/25 01:11:58;;;;;;;;;46.00;40.75;;;;;4.46;73.46;103437.53;5029310;28;11472;-71
2022/01/25 01:15:04;;;;;;;;;52.00;40.75;;;;;4.56;73.39;103428.03;5040413;28;11523;-71
2022/01/25 01:31:11;;;;;;;;;33.00;27.25;;;;;4.61;73.59;103425.94;5042179;28;11591;-71
2022/01/25 01:36:49;;;;;;;;;27.75;22.50;;;;;4.58;73.77;103420.75;5041487;28;11548;-72
2022/01/25 01:41:55;;;;;;;;;39.00;32.50;;;;;4.60;73.82;103420.66;5038670;28;11502;-72
2022/01/25 01:44:24;;;;;;;;;33.75;27.75;;;;;4.55;73.82;103420.91;5028939;28;11599;-71
2022/01/25 01:47:06;;;;;;;;;44.75;32.25;;;;;4.51;74.03;103419.38;5036552;28;12672;-72
2022/01/25 01:49:43;;;;;;;;;31.00;25.25;;;;;4.58;74.00;103415.38;5037823;28;11498;-71
2022/01/25 01:52:11;;;;;;;;;30.75;26.00;;;;;4.54;73.58;103419.19;5038953;28;12170;-72
2022/01/25 01:54:38;;;;;;;;;38.25;31.75;;;;;4.53;73.50;103420.16;5039326;28;11506;-71
2022/01/25 01:57:06;;;;;;;;;32.00;22.25;;;;;4.61;73.77;103417.88;5038090;28;11488;-71
2022/01/25 01:59:32;;;;;;;;;31.50;22.00;;;;;4.57;73.56;103420.84;5036528;28;11435;-71
2022/01/25 02:02:00;;;;;;;;;37.50;30.50;;;;;4.59;74.12;103411.75;5038357;28;11527;-72
2022/01/25 02:04:28;;;;;;;;;40.50;34.75;;;;;4.63;73.92;103415.13;5027955;28;11465;-72
2022/01/25 02:06:54;;;;;;;;;30.75;28.50;;;;;4.59;73.86;103417.09;5040282;28;11657;-71
2022/01/25 02:09:21;;;;;;;;;50.25;40.00;;;;;4.57;73.73;103413.66;5039030;28;11432;-71
2022/01/25 02:11:47;;;;;;;;;39.00;31.25;;;;;4.59;73.59;103408.19;5037243;28;11581;-71
2022/01/25 02:14:15;;;;;;;;;35.75;30.50;;;;;4.59;73.56;103416.25;5038100;28;11633;-71
2022/01/25 02:22:26;;;;;;;;;51.50;40.00;;;;;4.58;73.72;103414.50;5039744;28;11488;-72
2022/01/25 02:24:53;;;;;;;;;27.50;25.00;;;;;4.56;73.51;103425.34;5028122;28;11520;-71
2022/01/25 02:27:20;;;;;;;;;40.00;31.75;;;;;4.58;73.26;103417.19;5036315;28;11496;-71
2022/01/25 02:29:47;;;;;;;;;43.75;35.50;;;;;4.55;73.37;103412.00;5027165;28;11580;-71
2022/01/25 02:32:13;;;;;;;;;60.75;42.75;;;;;4.49;73.57;103407.88;5027672;28;11659;-71
2022/01/25 02:34:40;;;;;;;;;47.25;41.25;;;;;4.43;73.47;103397.47;5037138;28;11573;-71
2022/01/25 02:37:09;;;;;;;;;38.75;33.25;;;;;4.52;73.63;103404.13;5038349;28;11579;-71
2022/01/25 02:39:37;;;;;;;;;46.25;33.25;;;;;4.46;73.44;103400.00;5026786;28;11450;-72
2022/01/25 02:42:06;;;;;;;;;48.50;41.50;;;;;4.49;73.59;103404.31;5036777;28;11482;-72
2022/01/25 02:44:35;;;;;;;;;54.75;39.50;;;;;4.45;73.27;103398.22;5040339;28;11550;-71
2022/01/25 02:49:34;;;;;;;;;39.75;36.00;;;;;4.44;73.76;103399.19;5039598;28;11496;-72
2022/01/25 02:52:03;;;;;;;;;36.75;29.25;;;;;4.47;73.93;103392.81;5037900;28;11527;-72
2022/01/25 02:54:31;;;;;;;;;41.50;25.25;;;;;4.51;73.92;103397.91;5036866;28;11458;-71
2022/01/25 02:56:58;;;;;;;;;32.00;25.25;;;;;4.54;73.94;103395.06;5019994;28;11428;-71
2022/01/25 02:59:24;;;;;;;;;38.50;33.50;;;;;4.49;73.85;103402.50;5037984;28;11513;-71
2022/01/25 03:01:51;;;;;;;;;33.25;28.75;;;;;4.53;73.97;103396.00;5034765;28;11464;-71
2022/01/25 03:04:20;;;;;;;;;39.00;29.00;;;;;4.55;73.89;103398.59;5028325;28;12244;-72
2022/01/25 03:06:47;;;;;;;;;37.00;34.25;;;;;4.49;73.96;103399.81;5038294;28;11499;-72
2022/01/25 03:09:14;;;;;;;;;38.75;30.00;;;;;4.47;74.00;103398.19;5036997;28;11497;-71
2022/01/25 03:11:45;;;;;;;;;55.50;42.00;;;;;4.44;73.32;103390.28;5026170;28;11487;-72
2022/01/25 03:14:12;;;;;;;;;49.25;37.50;;;;;4.52;73.28;103396.97;5046596;28;11488;-71
2022/01/25 03:16:48;;;;;;;;;44.25;38.25;;;;;4.48;73.72;103398.09;5044196;28;11513;-71
2022/01/25 03:19:44;;;;;;;;;29.25;22.00;;;;;4.48;73.78;103395.41;5044232;28;11511;-71
2022/01/25 03:22:44;;;;;;;;;34.50;32.00;;;;;4.42;73.15;103386.81;5042227;28;11397;-71
2022/01/25 03:25:11;;;;;;;;;39.75;34.50;;;;;4.45;73.44;103392.00;5045663;28;11549;-71
2022/01/25 03:27:38;;;;;;;;;46.25;31.25;;;;;4.46;73.30;103391.06;5044450;28;11617;-71
2022/01/25 03:30:05;;;;;;;;;28.00;25.00;;;;;4.50;73.54;103389.94;5044451;28;11482;-71
2022/01/25 03:32:31;;;;;;;;;35.25;30.75;;;;;4.52;73.66;103396.97;5042090;28;11530;-72
2022/01/25 03:34:58;;;;;;;;;39.25;28.50;;;;;4.55;73.51;103393.22;5043127;28;11440;-72
2022/01/25 03:37:24;;;;;;;;;33.00;27.50;;;;;4.52;73.51;103396.09;5033174;28;11637;-71
2022/01/25 03:39:51;;;;;;;;;39.25;34.50;;;;;4.50;73.55;103389.94;5041591;28;11444;-71
2022/01/25 03:42:19;;;;;;;;;40.25;33.00;;;;;4.44;74.13;103380.41;5042310;28;11599;-71
2022/01/25 03:44:45;;;;;;;;;42.75;33.75;;;;;4.48;74.02;103382.00;5043312;28;11575;-71
2022/01/25 03:47:16;;;;;;;;;40.50;31.75;;;;;4.47;73.85;103382.09;5030492;28;11482;-72
2022/01/25 03:49:52;;;;;;;;;32.75;27.25;;;;;4.45;73.77;103386.63;5043378;28;12417;-71
2022/01/25 03:52:26;;;;;;;;;36.75;30.50;;;;;4.42;73.73;103385.00;5044404;28;11416;-72
2022/01/25 03:54:53;;;;;;;;;47.00;37.75;;;;;4.43;73.93;103377.81;5026612;28;11447;-72
2022/01/25 03:57:19;;;;;;;;;39.75;29.25;;;;;4.45;74.07;103384.81;5044274;28;12306;-71
2022/01/25 03:59:46;;;;;;;;;38.75;29.00;;;;;4.49;74.07;103378.34;5032320;28;11542;-72
2022/01/25 04:02:14;;;;;;;;;30.75;20.75;;;;;4.56;74.05;103378.88;5042444;28;11568;-72
2022/01/25 04:04:41;;;;;;;;;31.25;25.25;;;;;4.46;73.67;103385.69;5039894;28;11450;-72
2022/01/25 04:07:09;;;;;;;;;39.00;27.50;;;;;4.49;73.76;103385.53;5043572;28;11572;-71
2022/01/25 04:09:38;;;;;;;;;40.25;31.00;;;;;4.51;73.56;103384.50;5042849;28;11438;-72
2022/01/25 04:12:05;;;;;;;;;38.00;30.50;;;;;4.49;73.79;103382.84;5042600;28;11560;-72
2022/01/25 04:14:33;;;;;;;;;32.00;26.00;;;;;4.48;73.33;103384.69;5033589;28;11554;-71
2022/01/25 04:19:37;;;;;;;;;39.25;30.25;;;;;4.53;73.09;103385.28;5026676;28;11499;-71
2022/01/25 04:27:28;;;;;;;;;43.75;30.75;;;;;4.44;72.99;103380.41;5041705;28;11441;-71
2022/01/25 04:29:55;;;;;;;;;41.50;38.25;;;;;4.46;72.97;103377.63;5028649;28;11578;-72
2022/01/25 04:32:34;;;;;;;;;39.25;28.75;;;;;4.48;73.03;103375.75;5034296;28;11595;-72
2022/01/25 04:35:10;;;;;;;;;39.75;31.50;;;;;4.42;73.29;103368.91;5022079;28;11413;-71
2022/01/25 04:48:57;;;;;;;;;39.00;27.50;;;;;4.50;73.80;103363.13;5039269;28;11524;-71
2022/01/25 04:54:11;;;;;;;;;40.00;31.00;;;;;4.49;73.44;103364.09;5040632;28;11456;-71
2022/01/25 04:56:50;;;;;;;;;30.50;26.25;;;;;4.36;72.68;103363.91;5039659;28;12284;-72
2022/01/25 04:59:39;;;;;;;;;38.25;29.25;;;;;4.44;73.22;103364.31;5022546;28;11486;-72
2022/01/25 05:02:15;;;;;;;;;31.75;28.00;;;;;4.44;72.99;103356.28;5026159;28;11450;-71
2022/01/25 05:04:49;;;;;;;;;31.75;25.00;;;;;4.47;72.90;103352.56;5039206;28;11458;-71
2022/01/25 05:09:54;;;;;;;;;28.50;21.25;;;;;4.38;73.00;103356.63;5039372;28;11498;-72
2022/01/25 05:12:37;;;;;;;;;26.50;19.25;;;;;4.43;73.25;103353.69;5032545;23;11506;-71
2022/01/25 05:18:22;;;;;;;;;32.25;27.25;;;;;4.51;72.02;103352.31;5026588;28;11668;-71
2022/01/25 05:23:34;;;;;;;;;37.00;30.75;;;;;4.46;71.85;103353.50;5026828;28;11518;-72
2022/01/25 05:26:01;;;;;;;;;29.75;23.75;;;;;4.46;72.67;103346.34;5026266;28;11660;-72
2022/01/25 05:28:27;;;;;;;;;29.00;23.00;;;;;4.48;73.26;103351.63;5043390;28;11643;-72
2022/01/25 05:30:54;;;;;;;;;29.75;21.00;;;;;4.43;73.15;103346.50;5025896;28;11532;-72
2022/01/25 05:33:20;;;;;;;;;29.50;24.00;;;;;4.44;73.04;103347.38;5043409;28;12248;-72
2022/01/25 05:35:47;;;;;;;;;43.75;37.75;;;;;4.37;72.44;103351.34;5041280;28;11557;-72
2022/01/25 05:38:13;;;;;;;;;48.25;38.75;;;;;4.39;72.82;103354.81;5041633;28;11685;-72
2022/01/25 05:40:46;;;;;;;;;33.00;23.25;;;;;4.43;72.76;103357.22;5025690;28;11575;-73
2022/01/25 05:46:03;;;;;;;;;36.25;34.00;;;;;4.36;73.01;103355.84;5026443;28;11760;-72
2022/01/25 05:48:30;;;;;;;;;28.00;27.00;;;;;4.40;73.01;103359.22;5024978;28;11592;-72
2022/01/25 05:50:57;;;;;;;;;36.50;30.00;;;;;4.44;73.43;103358.09;5043100;28;11506;-72
2022/01/25 05:53:24;;;;;;;;;31.75;21.50;;;;;4.43;72.90;103362.59;5025595;28;11598;-72
2022/01/25 05:55:50;;;;;;;;;38.25;33.50;;;;;4.37;72.80;103371.00;5026519;28;12357;-71
2022/01/25 05:58:17;;;;;;;;;41.50;30.75;;;;;4.40;72.45;103372.63;5042739;28;11676;-72
2022/01/25 06:00:44;;;;;;;;;27.25;25.25;;;;;4.39;72.71;103369.09;5026501;28;11701;-71
2022/01/25 06:03:10;;;;;;;;;34.00;30.50;;;;;4.38;73.14;103371.84;5027089;28;12383;-72
2022/01/25 06:05:38;;;;;;;;;44.50;34.75;;;;;4.36;72.95;103371.94;5027369;28;11651;-72
2022/01/25 06:08:04;;;;;;;;;45.00;32.50;;;;;4.43;72.93;103377.81;5025496;28;11716;-72
2022/01/25 06:10:32;;;;;;;;;38.50;30.00;;;;;4.42;72.55;103376.09;5027699;28;12426;-72
2022/01/25 06:12:58;;;;;;;;;34.75;29.25;;;;;4.43;72.29;103377.81;5024914;28;12373;-72
2022/01/25 06:15:25;;;;;;;;;38.25;28.25;;;;;4.42;72.42;103382.31;5026957;28;11634;-72
2022/01/25 06:17:52;;;;;;;;;33.50;31.75;;;;;4.37;72.57;103381.72;5025787;28;11588;-72
2022/01/25 06:20:19;;;;;;;;;42.00;34.00;;;;;4.34;72.46;103373.84;5027372;28;11701;-71
2022/01/25 06:22:45;;;;;;;;;36.50;30.00;;;;;4.35;72.97;103377.41;5026118;28;12762;-72
2022/01/25 06:25:12;;;;;;;;;36.25;30.75;;;;;4.35;72.47;103366.66;5026471;28;11646;-72
2022/01/25 06:27:41;;;;;;;;;36.75;34.00;;;;;4.39;73.02;103376.25;5025394;28;11690;-72
2022/01/25 06:30:13;;;;;;;;;29.75;27.00;;;;;4.44;72.64;103375.03;5041694;28;11706;-71
2022/01/25 06:32:41;;;;;;;;;32.25;26.25;;;;;4.43;72.37;103365.28;5025426;28;11712;-72
2022/01/25 06:35:08;;;;;;;;;27.50;23.25;;;;;4.41;72.36;103369.00;5042759;28;11726;-71
2022/01/25 06:37:35;;;;;;;;;28.25;22.00;;;;;4.41;72.49;103371.69;5025045;28;11605;-72
2022/01/25 06:40:03;;;;;;;;;37.00;31.25;;;;;4.38;73.04;103372.72;5027192;28;11475;-72
2022/01/25 06:42:31;;;;;;;;;30.75;29.50;;;;;4.38;72.71;103362.00;5024624;28;11712;-72
2022/01/25 06:45:02;;;;;;;;;39.75;33.00;;;;;4.40;73.25;103367.25;5025631;28;11641;-73
2022/01/25 06:47:29;;;;;;;;;29.50;26.75;;;;;4.37;73.41;103368.31;5039212;28;11563;-72
2022/01/25 06:49:57;;;;;;;;;39.25;32.50;;;;;4.38;73.38;103378.09;5041120;28;11617;-72
2022/01/25 06:52:24;;;;;;;;;34.50;28.00;;;;;4.44;73.08;103374.19;5042097;28;12299;-72
2022/01/25 06:54:50;;;;;;;;;32.25;25.25;;;;;4.39;73.69;103382.50;5025038;28;11568;-72
2022/01/25 06:57:18;;;;;;;;;25.00;23.50;;;;;4.47;73.13;103382.94;5026429;28;11572;-72
2022/01/25 06:59:44;;;;;;;;;29.75;24.50;;;;;4.43;72.70;103381.38;5027004;28;12189;-72
2022/01/25 07:02:12;;;;;;;;;33.25;27.25;;;;;4.45;72.87;103389.31;5023051;28;11502;-71
2022/01/25 07:04:39;;;;;;;;;36.50;29.75;;;;;4.40;72.76;103386.03;5039664;28;11532;-71
2022/01/25 07:07:06;;;;;;;;;43.00;34.00;;;;;4.37;72.89;103389.75;5026469;28;11655;-71
2022/01/25 07:09:34;;;;;;;;;33.75;29.25;;;;;4.36;72.71;103397.91;5026491;28;11597;-71
2022/01/25 07:12:02;;;;;;;;;18.25;17.25;;;;;4.36;72.73;103384.50;5025574;28;11584;-71
2022/01/25 07:14:29;;;;;;;;;43.50;26.25;;;;;4.33;72.84;103389.06;5024849;28;11609;-71
2022/01/25 07:16:56;;;;;;;;;38.75;29.75;;;;;4.35;73.34;103385.44;5023060;28;14740;-72
2022/01/25 07:19:22;;;;;;;;;30.50;25.25;;;;;4.34;72.66;103392.63;5025959;28;11590;-72
2022/01/25 07:21:48;;;;;;;;;41.00;36.00;;;;;4.21;72.73;103391.56;5024318;28;11704;-73
2022/01/25 07:24:15;;;;;;;;;42.25;35.75;;;;;4.16;73.44;103389.13;5026497;28;11569;-73
2022/01/25 07:26:41;;;;;;;;;34.25;28.00;;;;;4.29;73.22;103392.03;5025764;28;12690;-72
2022/01/25 07:29:08;;;;;;;;;42.25;35.75;;;;;4.12;72.81;103390.25;5026323;28;11692;-73
2022/01/25 07:31:35;;;;;;;;;37.50;33.25;;;;;4.28;73.35;103387.59;5023651;28;11652;-72
2022/01/25 07:34:12;;;;;;;;;40.25;28.75;;;;;4.32;73.33;103386.47;5039903;28;11550;-72
2022/01/25 07:36:49;;;;;;;;;31.25;28.00;;;;;4.19;73.16;103388.09;5038903;28;11559;-70
2022/01/25 07:39:18;;;;;;;;;52.00;39.25;;;;;3.99;73.25;103390.09;5040529;28;11622;-71
2022/01/25 07:41:47;;;;;;;;;52.25;39.75;;;;;4.19;73.62;103393.47;5024675;28;11592;-70
2022/01/25 07:44:26;;;;;;;;;48.25;40.50;;;;;4.07;73.64;103386.09;5023774;28;11608;-71
2022/01/25 07:46:57;;;;;;;;;35.75;32.75;;;;;4.14;72.92;103384.81;5024367;28;11587;-71
2022/01/25 07:49:41;;;;;;;;;35.25;29.75;;;;;4.21;73.18;103379.06;5023925;28;11614;-71
2022/01/25 07:52:12;;;;;;;;;34.00;26.50;;;;;4.29;73.38;103382.16;5024872;28;11669;-72
2022/01/25 07:54:39;;;;;;;;;34.25;31.50;;;;;4.22;73.25;103386.13;5026202;28;11566;-72
2022/01/25 07:57:06;;;;;;;;;37.50;30.75;;;;;4.28;73.52;103384.94;5025891;28;11587;-71
2022/01/25 07:59:32;;;;;;;;;37.75;30.00;;;;;4.18;72.76;103381.00;5025435;28;11555;-71
2022/01/25 08:01:59;;;;;;;;;52.75;40.50;;;;;4.25;73.41;103383.28;5021833;28;11684;-72
2022/01/25 08:04:28;;;;;;;;;41.25;31.00;;;;;4.24;72.71;103394.97;5020374;28;11601;-71
2022/01/25 08:06:58;;;;;;;;;32.50;28.50;;;;;4.32;73.66;103392.72;5016835;28;11705;-70
2022/01/25 08:09:35;;;;;;;;;35.50;31.50;;;;;4.33;73.57;103388.22;5020305;28;11729;-72
2022/01/25 08:12:03;;;;;;;;;28.75;26.00;;;;;4.44;73.34;103385.78;5022138;28;11582;-72
2022/01/25 08:14:43;;;;;;;;;35.00;32.75;;;;;4.36;73.05;103385.34;5022955;28;11576;-72
2022/01/25 08:17:15;;;;;;;;;38.75;30.75;;;;;4.38;73.25;103390.63;5018637;28;11653;-71
2022/01/25 08:19:44;;;;;;;;;35.50;32.75;;;;;4.31;73.16;103388.28;5017666;28;11580;-72
2022/01/25 08:22:11;;;;;;;;;35.50;30.50;;;;;4.30;73.43;103383.88;5016675;28;11598;-71
2022/01/25 08:24:54;;;;;;;;;43.00;37.25;;;;;4.33;73.29;103386.38;5008281;28;11606;-71
2022/01/25 08:27:27;;;;;;;;;43.25;32.00;;;;;4.36;72.89;103382.66;5032964;28;11516;-72
2022/01/25 08:30:00;;;;;;;;;33.50;22.00;;;;;4.39;72.64;103381.63;5018062;28;11649;-71
2022/01/25 08:32:29;;;;;;;;;35.00;30.50;;;;;4.27;72.47;103385.88;5015884;28;11506;-71
2022/01/25 08:35:04;;;;;;;;;46.00;33.75;;;;;4.25;72.82;103372.56;5026026;28;11519;-72
2022/01/25 08:37:31;;;;;;;;;40.50;36.25;;;;;4.26;73.24;103385.00;5015413;28;11520;-71
2022/01/25 08:40:07;;;;;;;;;44.50;34.75;;;;;4.26;73.20;103382.34;5019776;28;12670;-72
2022/01/25 08:42:37;;;;;;;;;35.50;29.75;;;;;4.31;73.12;103388.28;5022197;28;11550;-72
2022/01/25 08:45:18;;;;;;;;;36.50;29.25;;;;;4.33;72.46;103388.22;5017636;28;11607;-73
2022/01/25 08:47:48;;;;;;;;;35.00;27.25;;;;;4.41;74.35;103383.28;5032915;28;11647;-71
2022/01/25 08:50:14;;;;;;;;;30.50;25.00;;;;;4.38;72.90;103385.25;5036113;28;11590;-71
2022/01/25 08:52:47;;;;;;;;;44.50;39.75;;;;;4.20;73.01;103379.97;5021557;28;11667;-71
2022/01/25 08:55:28;;;;;;;;;55.50;46.00;;;;;3.97;73.18;103386.63;5017637;28;11576;-71
2022/01/25 08:58:00;;;;;;;;;54.00;41.50;;;;;4.11;73.81;103376.94;5033601;28;11700;-72
2022/01/25 09:00:29;;;;;;;;;39.75;35.75;;;;;4.11;73.50;103375.13;5013425;28;11571;-72
2022/01/25 09:02:55;;;;;;;;;45.75;33.75;;;;;4.11;73.50;103376.94;5014619;28;11541;-72
2022/01/25 09:05:24;;;;;;;;;48.50;39.50;;;;;3.96;72.80;103371.47;5015929;28;11605;-72
2022/01/25 09:07:51;;;;;;;;;49.50;39.75;;;;;3.97;72.92;103367.00;5016996;28;11572;-73
2022/01/25 09:10:17;;;;;;;;;37.50;30.25;;;;;3.96;72.98;103371.47;5018005;28;11714;-71
2022/01/25 09:12:44;;;;;;;;;37.50;29.00;;;;;4.14;73.32;103387.50;5015591;28;11580;-71
2022/01/25 09:15:11;;;;;;;;;39.50;31.25;;;;;4.20;73.01;103389.81;5033728;28;11654;-71
2022/01/25 09:17:37;;;;;;;;;32.75;30.00;;;;;4.25;73.02;103390.47;5016788;28;12421;-72
2022/01/25 09:20:05;;;;;;;;;40.25;30.75;;;;;4.25;72.81;103394.00;5035876;28;11545;-71
2022/01/25 09:22:31;;;;;;;;;24.00;21.50;;;;;4.26;72.28;103395.75;5017823;28;11566;-71
2022/01/25 09:25:18;;;;;;;;;38.25;31.50;;;;;4.21;73.09;103402.28;5015884;28;11500;-72
2022/01/25 09:27:46;;;;;;;;;32.50;31.00;;;;;4.12;72.55;103409.03;5015452;28;11635;-71
2022/01/25 09:30:13;;;;;;;;;37.00;34.00;;;;;4.23;72.43;103417.38;5013771;28;11566;-71
2022/01/25 09:32:39;;;;;;;;;46.25;37.50;;;;;4.17;72.83;103417.69;5030395;28;11707;-72
2022/01/25 09:35:06;;;;;;;;;44.75;38.25;;;;;4.16;72.94;103420.44;5016636;28;11580;-73
2022/01/25 09:37:33;;;;;;;;;43.75;37.00;;;;;4.13;72.68;103412.56;5013668;28;11696;-72
2022/01/25 09:40:00;;;;;;;;;25.50;21.50;;;;;4.31;72.51;103414.25;5017207;28;11563;-72
2022/01/25 09:42:29;;;;;;;;;48.75;36.25;;;;;4.18;72.54;103421.22;5020443;28;11513;-72
2022/01/25 09:44:55;;;;;;;;;51.50;41.00;;;;;4.12;72.56;103426.94;5018500;28;12401;-71
2022/01/25 09:47:22;;;;;;;;;41.75;36.50;;;;;4.13;72.16;103421.47;5013571;28;11591;-72
2022/01/25 09:49:48;;;;;;;;;47.75;40.50;;;;;4.01;73.26;103422.16;5031405;28;11723;-72
2022/01/25 09:52:17;;;;;;;;;42.25;31.00;;;;;4.20;73.17;103419.31;5020245;28;12313;-72
2022/01/25 09:54:53;;;;;;;;;35.50;26.25;;;;;4.22;72.86;103420.13;5015682;28;11565;-72
2022/01/25 09:57:21;;;;;;;;;36.25;27.25;;;;;4.22;72.55;103426.34;5009774;28;11571;-72
2022/01/25 09:59:47;;;;;;;;;34.25;28.00;;;;;4.29;72.87;103432.25;5014921;28;12254;-72
2022/01/25 10:02:51;;;;;;;;;35.50;29.75;;;;;4.22;72.86;103428.16;5021569;28;11712;-72
2022/01/25 10:05:31;;;;;;;;;36.75;30.50;;;;;4.31;72.86;103431.19;5012853;28;12365;-72
2022/01/25 10:08:07;;;;;;;;;45.50;34.75;;;;;4.15;73.16;103441.03;5031175;28;11594;-72
2022/01/25 10:10:46;;;;;;;;;44.75;38.25;;;;;4.21;73.57;103445.19;5010533;28;11711;-72
2022/01/25 10:13:18;;;;;;;;;45.50;37.50;;;;;4.22;72.89;103452.31;5032968;28;11585;-71
2022/01/25 10:15:44;;;;;;;;;53.75;42.25;;;;;3.98;73.30;103457.16;5014196;28;12305;-72
2022/01/25 10:18:20;;;;;;;;;47.00;40.75;;;;;4.01;74.30;103460.53;5025633;28;11648;-71
2022/01/25 10:20:51;;;;;;;;;38.25;33.00;;;;;3.98;74.52;103459.84;5017118;28;11578;-73
2022/01/25 10:23:25;;;;;;;;;32.75;31.25;;;;;4.06;74.62;103471.03;5011575;28;11659;-72
2022/01/25 10:25:52;;;;;;;;;46.75;36.50;;;;;4.17;73.96;103470.44;5014602;28;11587;-71
2022/01/25 10:28:24;;;;;;;;;42.25;34.50;;;;;4.24;73.88;103471.84;5016191;28;11596;-72
2022/01/25 10:31:00;;;;;;;;;23.25;20.50;;;;;4.24;73.78;103463.81;5015353;28;11579;-73
2022/01/25 10:33:31;;;;;;;;;34.75;30.75;;;;;4.13;73.45;103467.06;5035590;28;11602;-70
2022/01/25 10:36:10;;;;;;;;;33.50;29.00;;;;;4.06;74.31;103465.66;5020367;28;11639;-71
2022/01/25 10:38:40;;;;;;;;;42.25;37.50;;;;;4.08;73.56;103458.41;5017539;28;11555;-71
2022/01/25 10:41:11;;;;;;;;;43.50;34.75;;;;;4.11;73.28;103460.03;5018707;28;11592;-71
2022/01/25 10:43:40;;;;;;;;;37.25;31.00;;;;;4.06;73.47;103454.06;5017455;28;11624;-70
2022/01/25 10:46:16;;;;;;;;;43.50;34.00;;;;;4.06;73.99;103457.63;5018358;28;12366;-71
2022/01/25 10:48:59;;;;;;;;;57.75;35.50;;;;;3.99;74.03;103467.81;5016632;28;12274;-71
2022/01/25 10:51:33;;;;;;;;;48.00;40.00;;;;;3.71;74.51;103465.69;5005821;28;11603;-71
2022/01/25 10:54:06;;;;;;;;;48.50;35.50;;;;;3.88;75.43;103461.25;5015858;28;11622;-71
2022/01/25 10:56:48;;;;;;;;;39.75;33.50;;;;;3.87;74.50;103460.41;5034613;28;11560;-71
2022/01/25 10:59:18;;;;;;;;;39.25;32.75;;;;;3.92;74.88;103458.34;5015018;28;11652;-69
2022/01/25 11:01:52;;;;;;;;;37.75;30.00;;;;;3.91;74.91;103455.75;5013836;28;11579;-70
2022/01/25 11:04:23;;;;;;;;;43.75;36.75;;;;;3.99;74.85;103461.59;5012815;28;11627;-70
2022/01/25 11:07:05;;;;;;;;;49.50;37.00;;;;;4.03;74.25;103464.97;5015656;28;12318;-71
2022/01/25 11:09:38;;;;;;;;;39.25;30.50;;;;;3.79;75.14;103461.75;5013347;28;11598;-71
2022/01/25 11:12:12;;;;;;;;;39.75;32.00;;;;;3.76;75.58;103472.66;5016105;28;11570;-72
2022/01/25 11:14:53;;;;;;;;;32.25;24.75;;;;;3.95;75.29;103471.56;5013272;28;11694;-72
2022/01/25 11:17:21;;;;;;;;;36.25;31.50;;;;;4.05;74.65;103466.59;5018767;28;11556;-71
2022/01/25 11:19:48;;;;;;;;;47.25;35.00;;;;;3.91;74.54;103459.28;5013221;28;11636;-71
2022/01/25 11:22:19;;;;;;;;;42.75;35.50;;;;;3.83;74.75;103464.19;5014145;28;11552;-71
2022/01/25 11:24:52;;;;;;;;;35.00;32.00;;;;;3.83;75.25;103464.19;5012986;28;11539;-72
2022/01/25 11:27:20;;;;;;;;;40.00;35.75;;;;;3.90;75.03;103462.03;5027509;28;11670;-72
2022/01/25 11:29:50;;;;;;;;;29.00;25.50;;;;;3.95;74.56;103462.66;5017116;28;11580;-72
2022/01/25 11:32:21;;;;;;;;;27.50;22.50;;;;;3.83;75.56;103449.94;5018692;28;12312;-72
2022/01/25 11:34:48;;;;;;;;;38.25;28.00;;;;;3.94;75.24;103445.72;5018273;28;11576;-72
2022/01/25 11:37:14;;;;;;;;;33.25;30.00;;;;;3.98;74.85;103435.72;5018520;28;11704;-72
2022/01/25 11:39:45;;;;;;;;;26.50;24.25;;;;;3.97;74.92;103434.88;5021400;28;11561;-72
2022/01/25 11:42:16;;;;;;;;;31.00;26.00;;;;;4.02;74.95;103434.59;5026248;28;11542;-72
2022/01/25 11:44:50;;;;;;;;;32.75;24.50;;;;;3.97;74.39;103428.63;5018482;28;11623;-71
2022/01/25 11:47:19;;;;;;;;;40.00;28.50;;;;;4.05;74.77;103429.06;5032157;28;11561;-72
2022/01/25 11:49:55;;;;;;;;;26.75;22.50;;;;;4.09;75.00;103429.78;5017842;28;11650;-72
2022/01/25 11:52:24;;;;;;;;;31.50;27.00;;;;;4.07;74.45;103431.69;5017614;28;11554;-72
2022/01/25 11:54:53;;;;;;;;;34.00;28.75;;;;;4.04;74.84;103419.31;5018290;28;11580;-72
2022/01/25 11:57:23;;;;;;;;;36.50;28.25;;;;;4.00;74.73;103433.81;5032149;28;11593;-72
2022/01/25 11:59:59;;;;;;;;;37.00;28.75;;;;;4.13;74.59;103431.34;5016278;28;12394;-72
2022/01/25 12:02:49;;;;;;;;;21.25;18.00;;;;;4.17;74.39;103414.13;5036315;28;11693;-71
2022/01/25 12:05:27;;;;;;;;;37.00;25.75;;;;;4.17;74.58;103423.03;5001481;28;11618;-71
2022/01/25 12:08:11;;;;;;;;;23.25;22.25;;;;;4.15;74.17;103416.91;5015875;28;11659;-73
2022/01/25 12:10:43;;;;;;;;;26.75;21.50;;;;;4.16;74.40;103413.25;5017819;28;11686;-72
2022/01/25 12:13:11;;;;;;;;;26.00;22.50;;;;;4.12;74.58;103413.53;5015298;28;11562;-72
2022/01/25 12:15:37;;;;;;;;;18.25;13.25;;;;;4.22;74.73;103404.03;5017222;28;11587;-70
2022/01/25 12:18:08;;;;;;;;;41.25;28.00;;;;;4.16;74.95;103402.53;5018083;28;11515;-72
2022/01/25 12:20:46;;;;;;;;;38.25;25.00;;;;;4.23;74.75;103403.09;5019706;28;11571;-72
2022/01/25 12:23:21;;;;;;;;;35.50;27.00;;;;;4.23;74.77;103400.41;5017793;28;11566;-71
2022/01/25 12:25:57;;;;;;;;;39.50;30.50;;;;;4.13;74.95;103396.47;5017870;28;11730;-70
2022/01/25 12:28:46;;;;;;;;;27.75;26.00;;;;;4.09;74.81;103389.56;5033081;28;11586;-68
2022/01/25 12:31:17;;;;;;;;;33.00;28.50;;;;;4.10;75.01;103393.97;5018469;28;11588;-72
2022/01/25 12:33:46;;;;;;;;;34.00;28.00;;;;;4.17;75.06;103392.69;5019423;28;11639;-71
2022/01/25 12:36:13;;;;;;;;;20.25;16.00;;;;;4.13;74.98;103383.94;5017966;28;11668;-71
2022/01/25 12:38:39;;;;;;;;;36.50;30.75;;;;;4.22;74.91;103385.28;5002523;28;11695;-72
2022/01/25 12:41:08;;;;;;;;;27.50;25.00;;;;;4.30;75.14;103385.69;5019971;28;11921;-71
2022/01/25 12:43:43;;;;;;;;;31.75;27.25;;;;;4.18;74.78;103376.50;5022376;28;11634;-71
2022/01/25 12:46:14;;;;;;;;;28.75;25.25;;;;;4.11;74.31;103379.63;5021238;28;11618;-72
2022/01/25 12:48:54;;;;;;;;;44.25;34.50;;;;;4.13;75.10;103380.41;5021973;28;11567;-71
2022/01/25 12:51:30;;;;;;;;;34.50;27.50;;;;;4.06;74.86;103376.34;5019160;28;11566;-71
2022/01/25 12:53:59;;;;;;;;;43.75;35.50;;;;;3.97;75.53;103367.88;5017127;28;11612;-71
2022/01/25 12:56:34;;;;;;;;;34.50;30.50;;;;;4.05;74.93;103367.44;5017912;28;12386;-71
2022/01/25 12:59:10;;;;;;;;;35.75;31.00;;;;;3.97;75.30;103367.88;5016164;28;11668;-72
2022/01/25 13:01:38;;;;;;;;;41.75;34.00;;;;;3.90;75.54;103362.91;5017417;28;11666;-73